默认 日期 大小 文件数 浏览量 最新下载 xml
the dog磁力链接相关资源由用户搜索指令自动获取,结果来源于网络,本站不存储任何资料,亦不承担任何责任,请于24小时内删除,搜索到4974个磁力,显示前4000条数据,用时60ms。
    {"RARBG.txt": 30, "pat.the.dog.s01e06.720p.hdtv.x264-w4f.mkv": 521053793, "pat.the.dog.s01e06.720p.hdtv.x264-w4f.nfo": 6123}
创建时间: 2019-04-26 21:59:34 大小:496.92 MB 文件数量:3 热度:4 最近下载:2023-04-24 20:20:18
    {"Face.jpg": 341415, "Nazareth - Hair Of The Dog.wv": 1677375688, "Nazareth - Hair Of The Dog.cue": 810}
创建时间: 2019-04-27 01:33:53 大小:1.56 GB 文件数量:3 热度:5 最近下载:2023-04-24 22:00:26
    ... ": 35330391, "The Dog Stars-Part02.mp3": 35769495, "The Dog Stars-Part03.mp3": 36601431, "The Dog Stars ... -Part04.mp3": 30768087, "The Dog Stars ...
创建时间: 2019-04-27 02:22:12 大小:293.66 MB 文件数量:9 热度:6 最近下载:2025-08-02 22:50:07
    {"poster.jpg": 344801, "INFO!!!.txt": 6555, "Premiery 2015.html": 859, "Wejdz po Więcej.url": 113, "Takie Klimaty na Naszym Radiu.txt": 654, "[Free-Torrents.pl] Przygody tańczącego psiaka - Putsey The Dog The Movie (2014) [DVDRip] [X.avi": 730233592}
创建时间: 2019-04-27 03:47:11 大小:696.74 MB 文件数量:6 热度:4 最近下载:2023-04-24 23:00:33
    {"RARBG.txt": 30, "RARBG_DO_NOT_MIRROR.exe": 99, "year.of.the.dog.2007.hr.web.x264-regret.mkv": 1184637254, "year.of.the.dog.2007.hr.web.x264-regret.nfo": 1037}
创建时间: 2019-04-28 02:50:41 大小:1.1 GB 文件数量:4 热度:6 最近下载:2024-07-15 13:36:02
    {"RARBG.txt": 30, "pat.the.dog.s01e05.720p.hdtv.x264-w4f.mkv": 606256522, "pat.the.dog.s01e05.720p.hdtv.x264-w4f.nfo": 6123}
创建时间: 2019-04-28 06:33:35 大小:578.18 MB 文件数量:3 热度:3 最近下载:2021-06-17 16:25:58
    {"Fear The Walking Dead S01E03 The Dog.mp4": 2029068227, "Fear The Walking Dead S01E03 The Dog.srt": 63891}
创建时间: 2019-04-29 00:18:28 大小:1.89 GB 文件数量:2 热度:6 最近下载:2025-09-20 14:31:04
    ... folder.jpg": 78080, "04. The Spell.mp3": 7408281, "06. ... .mp3": 15272193, "01. Into the Storm.mp3": 5599576, "03. ... ": 13476023, "08. Wage with the Devil.mp3": 13200174, "02. ... .mp3": 9416603, "09. The Siren's Song Pt.1 ... .mp3": 8556649, "10. The Siren's Song Pt.2 ...
创建时间: 2019-04-29 00:26:49 大小:106.63 MB 文件数量:11 热度:5 最近下载:2024-12-13 23:32:02
    {"www.YTS.AM.jpg": 58132, "Wag.The.Dog.1997.1080p.WEBRip.x264-[YTS.AM].mp4": 1678477704}
创建时间: 2019-04-29 15:55:21 大小:1.56 GB 文件数量:2 热度:6 最近下载:2021-06-17 16:25:58
    ... , "S05E11 A Member of the Family.avi": 369275554, "S05E05 ... ": 369251812, "S05E10 Cesar and the Horse Whisperer.avi": 369284018, ... S05E16 Baby Girl (Afraid of the Bark).avi": 366766080, "S05E12 ... & Marley and Sparky (Have Dog ... Will Travel).avi": 369293654}
创建时间: 2019-04-29 16:49:41 大小:7.9 GB 文件数量:23 热度:5 最近下载:2024-12-02 19:42:03
    ... Friend.mp3": 9201228, "11 - The Hanging Tree.mp3": 9751891, "05 ... - The Devil's Slide.mp3": 8941052, ... ": 11664058, "06 - Roses 'round The Door.mp3": 10209566, "09 - Sweet ... .mp3": 11610776, "01 - Let The Dog See The Rabbit.mp3": 8689250}
创建时间: 2019-04-29 19:27:01 大小:99.29 MB 文件数量:12 热度:4 最近下载:2025-03-30 06:34:02
    {"RARBG.com.txt": 34, "the.dog.lover.2016.dvdrip.x264-sprinter.jpg": 5057, "the.dog.lover.2016.dvdrip.x264-sprinter.mkv": 617900966, "the.dog.lover.2016.dvdrip.x264-sprinter.nfo": 4517}
创建时间: 2019-04-30 02:16:39 大小:589.29 MB 文件数量:4 热度:5 最近下载:2025-09-21 19:44:04
    {"RARBG.txt": 30, "RARBG_DO_NOT_MIRROR.exe": 99, "wankitnow.19.04.12.ashley.jay.in.the.dog.house.mp4": 456619303, "wankitnow.19.04.12.ashley.jay.in.the.dog.house.nfo": 5200}
创建时间: 2019-05-01 02:20:44 大小:435.47 MB 文件数量:4 热度:9 最近下载:2025-08-08 03:32:01
    {"its.me.or.the.dog.s01e02.the.prince.of.chaos.internal.1080p.web.x264-caffeine.nfo": 487, "Its.Me.or.the.Dog.S01E02.The.Prince.of.Chaos.iNTERNAL.1080p.WEB.x264-CAFFEiNE[N1C].mkv": 1557462373}
创建时间: 2019-05-05 15:42:04 大小:1.45 GB 文件数量:2 热度:4 最近下载:2021-06-17 16:25:58
    {"back.jpeg": 65617, "folder.jpeg": 63209, "(B1) - Blue Moon Baby.flac": 52391235, "(B2) - Georgia Lee Brown.flac": 69601115, "(A1) - Can Your Pussy Do The Dog.flac": 71144636, "The Cramps - Can Your Pussy Do The Dog.nfo": 2015}
创建时间: 2019-05-06 01:03:55 大小:184.31 MB 文件数量:6 热度:15 最近下载:2025-10-09 01:04:02
    ... the Dog - 01.m4b": 29442918, "The Power of the Dog - 02.m4b": 28745688, "The Power of the Dog ... - 03.m4b": 30212794, "The Power of the Dog ...
创建时间: 2019-05-07 12:46:11 大小:552.03 MB 文件数量:23 热度:3 最近下载:2021-09-18 05:50:11
    {"Snap1.jpg": 85423, "Snap2.jpg": 89559, "123456.JPG": 266444, "104maxd04pl.jpg": 305516, "��ӭ������������.txt": 109, "Sakura Sakurada - THE DOG GAME �O���ފ��쥤��.rmvb": 425272189}
创建时间: 2019-05-07 17:59:45 大小:406.28 MB 文件数量:6 热度:69 最近下载:2025-07-24 01:36:02
    ... -Chapter 10.mp3": 6240072, "13 The Dog Who Knew Too Much - 13 ... -Chapter 11.mp3": 6817656, "14 The Dog Who Knew Too Much - 14 ... -Chapter 32.mp3": 12260856, "01 The Dog Who Knew Too Much - 01 ... -Introduction.mp3": 391613, "02 The Dog Who Knew Too Much - 02 ...
创建时间: 2019-05-08 13:17:18 大小:222.27 MB 文件数量:35 热度:4 最近下载:2021-06-17 16:25:58
    ... The Dog - Hunger Strike.mp3": 7508640, "05 - Temple of The Dog - Call Me A Dog ... .mp3": 9365696, "10 - Temple of The Dog ... , "09 - Temple of The Dog - Four Walled World.mp3": ... 11856247, "04 - Temple of The Dog - Pushin Forward Back.mp3": ...
创建时间: 2019-05-10 19:44:36 大小:96.71 MB 文件数量:10 热度:4 最近下载:2025-09-03 20:39:01
    ... - The Legend of the Ghost Cat.mkv": 103808585, "The Hakkenden - Shin Shou - 11 - Dog ... Warriors in the Netherworld.mkv": 103637815, "The Hakkenden ...
创建时间: 2019-05-12 16:29:52 大小:1.35 GB 文件数量:17 热度:5 最近下载:2025-04-01 12:45:03